createdAt,value
2019-05-20T00:01:08.792Z,10.30
2019-05-20T00:03:38.393Z,10.10
2019-05-20T00:06:07.466Z,11.53
2019-05-20T00:08:36.917Z,8.00
2019-05-20T00:11:06.008Z,10.63
2019-05-20T00:13:35.357Z,10.00
2019-05-20T00:16:04.295Z,9.60
2019-05-20T00:18:33.359Z,8.47
2019-05-20T00:21:02.690Z,18.00
2019-05-20T00:23:32.039Z,11.13
2019-05-20T00:26:01.027Z,8.47
2019-05-20T00:28:30.654Z,8.10
2019-05-20T00:30:59.859Z,11.10
2019-05-20T00:33:29.574Z,7.00
2019-05-20T00:35:58.623Z,11.43
2019-05-20T00:38:27.982Z,14.00
2019-05-20T00:40:57.182Z,7.33
2019-05-20T00:43:26.477Z,9.23
2019-05-20T00:45:55.742Z,8.77
2019-05-20T00:48:24.657Z,14.07
2019-05-20T00:50:53.538Z,9.20
2019-05-20T00:53:23.206Z,6.60
2019-05-20T00:55:52.891Z,8.50
2019-05-20T00:58:22.485Z,10.80
2019-05-20T01:00:51.839Z,9.43
2019-05-20T01:03:20.780Z,9.23
2019-05-20T01:05:49.781Z,8.70
2019-05-20T01:08:18.685Z,7.43
2019-05-20T01:10:47.633Z,11.37
2019-05-20T01:13:16.559Z,11.57
2019-05-20T01:15:45.790Z,9.97
2019-05-20T01:18:14.697Z,10.27
2019-05-20T01:20:43.905Z,6.93
2019-05-20T01:23:13.181Z,8.13
2019-05-20T01:25:42.118Z,9.87
2019-05-20T01:28:11.502Z,11.13
2019-05-20T01:30:40.463Z,10.90
2019-05-20T01:33:14.376Z,7.97
2019-05-20T01:35:40.397Z,10.17
2019-05-20T01:38:09.318Z,10.20
2019-05-20T01:40:38.212Z,14.93
2019-05-20T01:43:07.541Z,9.60
2019-05-20T01:45:36.524Z,11.60
2019-05-20T01:48:05.657Z,11.70
2019-05-20T01:50:34.833Z,10.80
2019-05-20T01:53:04.165Z,11.30
2019-05-20T01:55:33.414Z,9.37
2019-05-20T01:58:02.384Z,11.27
2019-05-20T02:00:31.384Z,11.20
2019-05-20T02:03:00.354Z,14.37
2019-05-20T02:05:29.264Z,9.80
2019-05-20T02:07:58.287Z,9.07
2019-05-20T02:10:27.279Z,8.70
2019-05-20T02:12:56.596Z,12.27
2019-05-20T02:15:50.665Z,17.80
2019-05-20T02:18:19.988Z,16.80
2019-05-20T02:20:49.903Z,10.80
2019-05-20T02:23:19.158Z,13.70
2019-05-20T02:25:48.869Z,14.23
2019-05-20T02:28:17.866Z,14.00
2019-05-20T02:30:49.125Z,12.57
2019-05-20T02:33:18.438Z,14.00
2019-05-20T02:35:47.351Z,14.07
2019-05-20T02:38:16.556Z,14.03
2019-05-20T02:40:45.576Z,15.00
2019-05-20T02:43:14.541Z,15.80
2019-05-20T02:45:43.821Z,17.63
2019-05-20T02:48:12.838Z,16.43
2019-05-20T02:50:42.208Z,16.53
2019-05-20T02:53:11.135Z,13.93
2019-05-20T02:55:40.141Z,13.97
2019-05-20T02:58:09.425Z,17.57
2019-05-20T03:00:38.344Z,14.00
2019-05-20T03:03:07.574Z,17.87
2019-05-20T03:05:36.562Z,17.57
2019-05-20T03:08:05.974Z,21.57
2019-05-20T03:10:34.919Z,20.27
2019-05-20T03:13:03.934Z,24.60
2019-05-20T03:15:33.276Z,24.07
2019-05-20T03:18:03.695Z,21.10
2019-05-20T03:20:32.700Z,24.90
2019-05-20T03:23:01.660Z,22.00
2019-05-20T03:25:30.945Z,25.70
2019-05-20T03:27:59.979Z,24.03
2019-05-20T03:30:29.303Z,24.37
2019-05-20T03:32:58.264Z,29.23
2019-05-20T03:35:27.200Z,28.30
2019-05-20T03:37:56.184Z,22.40
2019-05-20T03:40:25.117Z,25.57
2019-05-20T03:42:54.123Z,27.17
2019-05-20T03:45:23.096Z,27.37
2019-05-20T03:47:52.891Z,29.67
2019-05-20T03:50:22.229Z,27.67
2019-05-20T03:52:51.564Z,35.17
2019-05-20T03:55:20.622Z,31.10
2019-05-20T03:57:49.769Z,32.37
2019-05-20T04:00:20.462Z,31.80
2019-05-20T04:02:49.827Z,29.93
2019-05-20T04:05:18.856Z,34.53
2019-05-20T04:07:47.936Z,37.17
2019-05-20T04:10:17.968Z,39.13
2019-05-20T04:12:49.342Z,43.80
2019-05-20T04:15:18.321Z,33.90
2019-05-20T04:17:47.844Z,24.03
2019-05-20T04:20:17.763Z,42.70
2019-05-20T04:22:46.795Z,39.20
2019-05-20T04:25:15.995Z,37.63
2019-05-20T04:27:45.331Z,31.13
2019-05-20T04:30:18.688Z,40.80
2019-05-20T04:32:45.306Z,43.30
2019-05-20T04:35:22.187Z,41.20
2019-05-20T04:37:46.710Z,30.70
2019-05-20T04:40:16.404Z,42.77
2019-05-20T04:42:45.602Z,45.17
2019-05-20T04:45:17.144Z,32.70
2019-05-20T04:47:46.269Z,41.30
2019-05-20T04:50:16.458Z,35.67
2019-05-20T04:52:45.991Z,47.27
2019-05-20T04:55:15.744Z,40.00
2019-05-20T04:57:45.991Z,43.50
2019-05-20T05:00:17.539Z,51.90
2019-05-20T05:02:46.774Z,46.33
2019-05-20T05:05:15.895Z,33.43
2019-05-20T05:07:45.994Z,39.37
2019-05-20T05:10:15.462Z,37.00
2019-05-20T05:12:44.715Z,35.97
2019-05-20T05:15:15.663Z,45.67
2019-05-20T05:17:45.615Z,41.07
2019-05-20T05:20:18.425Z,45.23
2019-05-20T05:22:46.538Z,37.70
2019-05-20T05:25:15.613Z,38.63
2019-05-20T05:27:44.712Z,28.97
2019-05-20T05:30:13.859Z,37.93
2019-05-20T05:32:44.285Z,35.67
2019-05-20T05:35:14.439Z,37.10
2019-05-20T05:37:49.589Z,43.67
2019-05-20T05:40:19.575Z,44.77
2019-05-20T05:42:48.632Z,37.67
2019-05-20T05:45:20.277Z,41.00
2019-05-20T05:47:49.343Z,44.67
2019-05-20T05:50:18.965Z,45.30
2019-05-20T05:52:48.055Z,42.50
2019-05-20T05:55:17.057Z,38.83
2019-05-20T05:57:46.416Z,47.10
2019-05-20T06:00:15.668Z,51.20
2019-05-20T06:02:45.177Z,43.23
2019-05-20T06:05:18.752Z,39.23
2019-05-20T06:07:48.217Z,43.37
2019-05-20T06:10:17.615Z,42.00
2019-05-20T06:12:47.207Z,39.40
2019-05-20T06:15:16.245Z,45.67
2019-05-20T06:17:45.471Z,38.23
2019-05-20T06:20:15.516Z,50.17
2019-05-20T06:22:44.786Z,41.07
2019-05-20T06:25:21.540Z,37.70
2019-05-20T06:27:51.288Z,48.80
2019-05-20T06:30:22.741Z,51.43
2019-05-20T06:32:51.946Z,47.57
2019-05-20T06:35:21.619Z,58.13
2019-05-20T06:37:56.103Z,58.97
2019-05-20T06:40:25.297Z,63.20
2019-05-20T06:42:54.875Z,50.43
2019-05-20T06:45:24.171Z,57.93
2019-05-20T06:47:53.997Z,63.03
2019-05-20T06:50:25.197Z,63.47
2019-05-20T06:52:54.774Z,61.67
2019-05-20T06:55:24.204Z,62.03
2019-05-20T06:57:54.562Z,60.50
2019-05-20T07:00:33.781Z,73.93
2019-05-20T07:03:03.003Z,65.57
2019-05-20T07:05:32.780Z,65.47
2019-05-20T07:08:02.491Z,77.13
2019-05-20T07:10:31.791Z,78.63
2019-05-20T07:13:03.143Z,69.10
2019-05-20T07:15:33.143Z,66.80
2019-05-20T07:18:07.007Z,78.03
2019-05-20T07:20:51.822Z,77.17
2019-05-20T07:23:42.134Z,74.97
2019-05-20T07:26:11.203Z,71.43
2019-05-20T07:28:40.933Z,73.27
2019-05-20T07:31:10.358Z,61.20
2019-05-20T07:33:41.754Z,64.17
2019-05-20T07:36:13.998Z,69.87
2019-05-20T07:38:44.755Z,63.93
2019-05-20T07:41:14.891Z,65.43
2019-05-20T07:43:47.035Z,65.07
2019-05-20T07:46:17.038Z,62.87
2019-05-20T07:48:47.239Z,57.33
2019-05-20T07:51:18.502Z,60.87
2019-05-20T07:53:48.088Z,61.20
2019-05-20T07:56:18.994Z,59.20
2019-05-20T07:58:50.871Z,58.93
2019-05-20T08:01:21.107Z,54.60
2019-05-20T08:03:51.710Z,51.17
2019-05-20T08:06:22.482Z,54.90
2019-05-20T08:09:03.172Z,47.27
2019-05-20T08:11:32.815Z,53.20
2019-05-20T08:14:03.953Z,45.27
2019-05-20T08:16:33.879Z,46.90
2019-05-20T08:19:03.585Z,50.43
2019-05-20T08:21:33.324Z,42.40
2019-05-20T08:24:03.243Z,40.93
2019-05-20T08:26:32.551Z,40.17
2019-05-20T08:29:01.586Z,39.60
2019-05-20T08:31:31.499Z,48.37
2019-05-20T08:34:03.574Z,42.63
2019-05-20T08:36:34.871Z,40.53
2019-05-20T08:39:04.819Z,40.03
2019-05-20T08:41:34.439Z,44.17
2019-05-20T08:44:04.569Z,39.00
2019-05-20T08:46:39.391Z,40.47
2019-05-20T08:49:11.194Z,33.17
2019-05-20T08:51:41.803Z,39.33
2019-05-20T08:54:13.965Z,43.30
2019-05-20T08:56:43.971Z,39.37
2019-05-20T08:59:13.618Z,38.43
2019-05-20T09:01:46.542Z,42.40
2019-05-20T09:04:16.335Z,39.20
2019-05-20T09:06:46.292Z,40.10
2019-05-20T09:09:15.836Z,39.80
2019-05-20T09:11:47.703Z,37.17
2019-05-20T09:14:20.606Z,38.67
2019-05-20T09:16:50.764Z,42.40
2019-05-20T09:19:23.505Z,36.47
2019-05-20T09:21:54.952Z,32.83
2019-05-20T09:24:26.225Z,35.73
2019-05-20T09:26:56.039Z,40.03
2019-05-20T09:29:26.273Z,34.80
2019-05-20T09:31:56.400Z,34.43
2019-05-20T09:34:35.513Z,35.43
2019-05-20T09:37:06.937Z,34.87
2019-05-20T09:39:37.165Z,29.47
2019-05-20T09:42:07.036Z,34.77
2019-05-20T09:44:42.556Z,48.90
2019-05-20T09:47:12.649Z,33.47
2019-05-20T09:49:42.117Z,38.03
2019-05-20T09:52:13.620Z,32.27
2019-05-20T09:54:45.673Z,34.60
2019-05-20T09:57:20.811Z,32.40
2019-05-20T09:59:50.164Z,31.93
2019-05-20T10:02:20.090Z,35.17
2019-05-20T10:04:52.856Z,32.20
2019-05-20T10:07:24.688Z,31.00
2019-05-20T10:09:54.515Z,36.33
2019-05-20T10:12:44.587Z,41.27
2019-05-20T10:15:00.421Z,30.27
2019-05-20T10:17:30.369Z,35.03
2019-05-20T10:20:00.511Z,34.87
2019-05-20T10:22:29.927Z,27.43
2019-05-20T10:24:59.386Z,24.10
2019-05-20T10:27:29.136Z,29.63
2019-05-20T10:29:58.964Z,30.83
2019-05-20T10:32:32.779Z,31.43
2019-05-20T10:35:02.557Z,37.63
2019-05-20T10:37:37.566Z,28.23
2019-05-20T10:40:07.425Z,34.37
2019-05-20T10:42:37.071Z,27.63
2019-05-20T10:45:06.205Z,33.33
2019-05-20T10:47:36.247Z,36.73
2019-05-20T10:50:07.749Z,31.70
2019-05-20T10:52:36.964Z,30.03
2019-05-20T10:55:08.382Z,27.90
2019-05-20T10:57:37.610Z,28.53
2019-05-20T11:00:08.353Z,29.70
2019-05-20T11:02:37.566Z,30.73
2019-05-20T11:05:07.689Z,30.33
2019-05-20T11:07:47.333Z,38.20
2019-05-20T11:10:16.947Z,39.73
2019-05-20T11:12:46.271Z,27.33
2019-05-20T11:15:15.635Z,35.93
2019-05-20T11:17:45.704Z,29.60
2019-05-20T11:20:16.824Z,23.87
2019-05-20T11:22:54.242Z,35.27
2019-05-20T11:25:20.644Z,21.40
2019-05-20T11:27:49.971Z,26.23
2019-05-20T11:30:19.324Z,33.67
2019-05-20T11:32:57.547Z,31.90
2019-05-20T11:35:27.789Z,29.00
2019-05-20T11:37:57.824Z,34.63
2019-05-20T11:40:28.876Z,42.87
2019-05-20T11:43:00.972Z,31.57
2019-05-20T11:45:30.091Z,42.50
2019-05-20T11:47:59.352Z,27.77
2019-05-20T11:50:29.095Z,38.50
2019-05-20T11:52:59.478Z,35.77
2019-05-20T11:55:29.109Z,38.00
2019-05-20T11:58:14.397Z,34.37
2019-05-20T12:00:31.156Z,37.13
2019-05-20T12:03:01.053Z,35.10
2019-05-20T12:05:30.664Z,37.83
2019-05-20T12:08:04.387Z,42.03
2019-05-20T12:10:34.025Z,39.70
2019-05-20T12:13:03.180Z,42.97
2019-05-20T12:15:32.653Z,42.90
2019-05-20T12:18:03.218Z,41.67
2019-05-20T12:20:43.420Z,48.60
2019-05-20T12:23:13.977Z,44.80
2019-05-20T12:25:43.853Z,39.60
2019-05-20T12:28:14.370Z,43.40
2019-05-20T12:30:46.066Z,41.27
2019-05-20T12:33:19.666Z,49.37
2019-05-20T12:35:53.089Z,50.20
2019-05-20T12:38:26.798Z,53.17
2019-05-20T12:40:56.735Z,40.40
2019-05-20T12:43:27.904Z,51.53
2019-05-20T12:45:59.594Z,40.17
2019-05-20T12:48:32.345Z,35.13
2019-05-20T12:51:04.132Z,33.70
2019-05-20T12:53:33.894Z,30.83
2019-05-20T12:56:03.701Z,33.53
2019-05-20T12:58:37.275Z,32.47
2019-05-20T13:01:08.206Z,33.37
2019-05-20T13:03:42.466Z,25.97
2019-05-20T13:06:18.082Z,45.53
2019-05-20T13:08:57.569Z,29.00
2019-05-20T13:11:28.349Z,25.90
2019-05-20T13:14:08.153Z,29.40
2019-05-20T13:16:37.874Z,27.77
2019-05-20T13:19:09.005Z,28.27
2019-05-20T13:21:45.063Z,21.17
2019-05-20T13:24:17.998Z,21.47
2019-05-20T13:27:10.018Z,19.97
2019-05-20T13:29:42.533Z,25.40
2019-05-20T13:32:14.771Z,18.70
2019-05-20T13:34:48.667Z,20.73
2019-05-20T13:37:21.813Z,27.87
2019-05-20T13:39:51.153Z,39.43
2019-05-20T13:42:22.290Z,29.97
2019-05-20T13:44:59.015Z,32.93
2019-05-20T13:47:39.477Z,29.00
2019-05-20T13:50:12.682Z,27.57
2019-05-20T14:07:29.850Z,26.93
2019-05-20T15:30:31.375Z,16.27
2019-05-20T15:33:00.728Z,14.60
2019-05-20T15:35:29.954Z,22.43
2019-05-20T15:37:58.905Z,14.90
2019-05-20T15:40:28.316Z,19.97
2019-05-20T15:42:57.650Z,19.67
2019-05-20T15:45:30.930Z,22.37
2019-05-20T15:48:00.408Z,21.17
2019-05-20T15:50:30.175Z,20.10
2019-05-20T15:52:59.283Z,19.83
2019-05-20T15:55:28.392Z,18.47
2019-05-20T15:57:57.425Z,20.50
2019-05-20T16:00:26.656Z,27.57
2019-05-20T16:02:59.117Z,19.60
2019-05-20T16:05:28.754Z,22.50
2019-05-20T16:07:57.988Z,25.93
2019-05-20T16:10:27.625Z,27.67
2019-05-20T16:12:57.629Z,24.13
2019-05-20T16:15:28.658Z,22.27
2019-05-20T16:18:00.905Z,21.30
2019-05-20T16:20:30.268Z,22.30
2019-05-20T16:23:00.019Z,41.30
2019-05-20T16:25:30.191Z,18.30
2019-05-20T16:27:59.247Z,18.37
2019-05-20T16:30:29.245Z,18.70
2019-05-20T16:32:58.793Z,28.77
2019-05-20T16:35:29.001Z,19.47
2019-05-20T16:37:59.775Z,18.77
2019-05-20T16:40:28.969Z,19.20
2019-05-20T16:42:58.440Z,25.87
2019-05-20T16:45:27.710Z,20.20
2019-05-20T16:48:01.882Z,22.30
2019-05-20T16:50:31.159Z,26.40
2019-05-20T16:53:01.544Z,25.10
2019-05-20T16:55:32.457Z,25.53
2019-05-20T16:58:02.187Z,29.03
2019-05-20T17:00:32.551Z,25.70
2019-05-20T17:03:01.971Z,24.60
2019-05-20T17:05:34.312Z,28.40
2019-05-20T17:08:23.825Z,31.10
2019-05-20T17:10:54.245Z,45.33
2019-05-20T17:13:49.593Z,23.53
2019-05-20T17:34:01.662Z,33.60
2019-05-20T17:36:33.093Z,31.20
2019-05-20T17:39:02.258Z,36.33
2019-05-20T17:41:37.619Z,34.73
2019-05-20T17:44:03.868Z,39.60
2019-05-20T17:46:33.211Z,43.30
2019-05-20T17:49:03.249Z,41.53
2019-05-20T17:51:32.322Z,43.07
2019-05-20T17:54:02.012Z,33.53
2019-05-20T17:56:31.251Z,45.73
2019-05-20T17:59:01.095Z,45.67
2019-05-20T18:01:30.195Z,47.80
2019-05-20T18:03:59.876Z,49.67
2019-05-20T18:06:28.900Z,47.50
2019-05-20T18:12:38.923Z,48.47
2019-05-20T18:15:18.790Z,54.57
2019-05-20T18:20:56.501Z,46.50
2019-05-20T18:23:24.950Z,53.47
2019-05-20T18:25:55.583Z,53.30
2019-05-20T18:28:26.399Z,51.20
2019-05-20T18:30:58.624Z,68.67
2019-05-20T18:33:28.789Z,58.80
2019-05-20T18:35:59.006Z,61.40
2019-05-20T18:38:28.829Z,63.67
2019-05-20T18:40:58.336Z,73.33
2019-05-20T18:43:31.794Z,71.50
2019-05-20T18:46:01.501Z,60.13
2019-05-20T18:48:31.050Z,64.53
2019-05-20T18:53:53.965Z,58.80
2019-05-20T18:56:23.807Z,57.40
2019-05-20T18:58:54.086Z,57.00
2019-05-20T19:01:23.386Z,57.40
2019-05-20T19:03:52.887Z,62.03
2019-05-20T19:06:21.849Z,59.43
2019-05-20T19:08:50.770Z,63.90
2019-05-20T19:11:20.803Z,48.27
2019-05-20T19:13:52.022Z,51.33
2019-05-20T19:16:22.590Z,50.53
2019-05-20T19:18:51.884Z,57.73
2019-05-20T19:21:22.414Z,49.53
2019-05-20T19:23:51.727Z,48.50
2019-05-20T19:26:24.932Z,49.80
2019-05-20T19:28:52.893Z,58.50
2019-05-20T19:31:22.708Z,56.00
2019-05-20T19:34:02.976Z,55.63
2019-05-20T19:36:32.415Z,57.10
2019-05-20T19:39:02.089Z,52.87
2019-05-20T19:41:31.130Z,54.47
2019-05-20T19:44:00.205Z,42.17
2019-05-20T19:46:29.562Z,48.73
2019-05-20T19:48:59.599Z,43.73
2019-05-20T19:51:34.917Z,45.23
2019-05-20T19:54:04.302Z,40.47
2019-05-20T19:56:33.419Z,36.33
2019-05-20T19:59:02.600Z,52.23
2019-05-20T20:01:31.709Z,43.63
2019-05-20T20:04:01.381Z,45.97
2019-05-20T20:06:32.523Z,39.77
2019-05-20T20:09:02.054Z,35.23
2019-05-20T20:11:32.186Z,31.63
2019-05-20T20:14:01.711Z,33.37
2019-05-20T20:16:32.216Z,36.73
2019-05-20T20:19:02.075Z,41.33
2019-05-20T20:21:31.895Z,31.13
2019-05-20T20:24:01.643Z,34.40
2019-05-20T20:26:31.141Z,29.67
2019-05-20T20:29:11.283Z,29.53
2019-05-20T20:31:38.574Z,43.80
2019-05-20T20:34:08.019Z,32.20
2019-05-20T20:36:37.514Z,42.20
2019-05-20T20:39:07.549Z,30.63
2019-05-20T20:41:37.358Z,41.90
2019-05-20T20:44:06.445Z,31.57
2019-05-20T20:46:35.531Z,29.63
2019-05-20T20:49:05.212Z,40.47
2019-05-20T20:51:34.215Z,35.50
2019-05-20T20:54:03.259Z,35.70
2019-05-20T20:56:34.278Z,23.57
2019-05-20T20:59:03.400Z,26.53
2019-05-20T21:01:32.874Z,18.90
2019-05-20T21:04:01.940Z,23.83
2019-05-20T21:06:31.490Z,15.20
2019-05-20T21:09:01.733Z,17.27
2019-05-20T21:11:31.785Z,15.50
2019-05-20T21:14:00.730Z,19.57
2019-05-20T21:16:30.163Z,18.53
2019-05-20T21:18:59.676Z,17.07
2019-05-20T21:21:28.706Z,16.07
2019-05-20T21:23:57.837Z,22.00
2019-05-20T21:26:27.627Z,24.13
2019-05-20T21:28:57.446Z,23.57
2019-05-20T21:31:26.731Z,32.07
2019-05-20T21:33:56.536Z,36.67
2019-05-20T21:36:26.543Z,36.30
2019-05-20T21:38:55.590Z,39.33
2019-05-20T21:41:24.839Z,43.33
2019-05-20T21:43:53.845Z,45.53
2019-05-20T21:46:23.155Z,37.03
2019-05-20T21:48:53.115Z,35.60
2019-05-20T21:51:22.203Z,37.53
2019-05-20T21:53:51.252Z,30.60
2019-05-20T21:56:20.934Z,32.27
2019-05-20T21:58:50.278Z,31.77
2019-05-20T22:01:20.545Z,30.23
2019-05-20T22:03:49.695Z,26.33
2019-05-20T22:06:18.882Z,25.47
2019-05-20T22:08:48.034Z,30.93
2019-05-20T22:11:17.182Z,30.43
2019-05-20T22:13:46.335Z,25.13
2019-05-20T22:16:20.107Z,28.50
2019-05-20T22:18:49.111Z,29.03
2019-05-20T22:21:23.880Z,25.77
2019-05-20T22:24:01.052Z,21.97
2019-05-20T22:26:31.846Z,17.47
2019-05-20T22:29:01.270Z,21.40
2019-05-20T22:31:34.396Z,25.10
2019-05-20T22:34:03.831Z,32.30
2019-05-20T22:36:32.799Z,23.23
2019-05-20T22:39:01.879Z,20.37
2019-05-20T22:41:31.870Z,29.67
2019-05-20T22:44:01.450Z,50.20
2019-05-20T22:46:30.790Z,42.00
2019-05-20T22:49:00.164Z,35.00
2019-05-20T22:51:29.556Z,43.53
2019-05-20T22:53:59.153Z,49.57
2019-05-20T22:56:28.759Z,36.27
2019-05-20T22:59:01.092Z,53.07
2019-05-20T23:01:32.868Z,41.60
2019-05-20T23:04:18.994Z,35.53
2019-05-20T23:06:48.611Z,42.87
2019-05-20T23:09:28.242Z,45.03
2019-05-20T23:11:57.961Z,39.60
2019-05-20T23:14:28.917Z,41.53
2019-05-20T23:17:02.373Z,39.67
2019-05-20T23:22:44.626Z,48.50
2019-05-20T23:25:24.222Z,42.73
2019-05-20T23:27:53.491Z,37.30
2019-05-20T23:30:23.199Z,42.07
2019-05-20T23:32:52.247Z,30.17
2019-05-20T23:35:22.045Z,44.73
2019-05-20T23:37:51.581Z,35.67
2019-05-20T23:40:20.929Z,38.53
2019-05-20T23:42:51.675Z,39.63
2019-05-20T23:45:21.398Z,34.40
2019-05-20T23:47:51.462Z,39.40
2019-05-20T23:50:20.867Z,31.97
2019-05-20T23:52:49.877Z,36.30
2019-05-20T23:55:18.842Z,22.70
2019-05-20T23:57:47.834Z,20.03
